Terminal Aerodrome Forecast
Issued by NWS

Home | Current Version | Previous Version | Graphics & Text | Print | Product List | Glossary On
Versions: 1 2 3 4 5 6 7 8 9 10 11 12 13 14 15 16 17 18
000
FTUS43 KICT 281139
TAFRSL
TAF
KRSL 281139Z 2812/2912 VRB06KT P6SM BKN008 OVC015
     FM281300 22006KT P6SM OVC015
     FM281500 28007KT P6SM SCT035
     FM281700 30008KT P6SM SCT050
     FM282300 36012KT P6SM VCSH OVC020
     FM290200 02015G23KT P6SM VCSH OVC015
     FM290600 02015G23KT 5SM RA OVC006=

USA.gov is the U.S. government's official web portal to all federal, state and local government web resources and services.